sensor_id;sensor_type;location;lat;lon;timestamp;temperature;humidity
37050;DHT22;22958;51.232;6.826;2022-07-23T00:00:46;17.00;99.90
37050;DHT22;22958;51.232;6.826;2022-07-23T00:03:12;17.00;99.90
37050;DHT22;22958;51.232;6.826;2022-07-23T00:05:37;16.90;99.90
37050;DHT22;22958;51.232;6.826;2022-07-23T00:08:03;16.90;99.90
37050;DHT22;22958;51.232;6.826;2022-07-23T00:10:29;16.90;99.90
37050;DHT22;22958;51.232;6.826;2022-07-23T00:12:54;17.00;99.90
37050;DHT22;22958;51.232;6.826;2022-07-23T00:15:19;17.00;99.90
37050;DHT22;22958;51.232;6.826;2022-07-23T00:17:45;17.00;99.90
37050;DHT22;22958;51.232;6.826;2022-07-23T00:20:10;17.00;99.90
37050;DHT22;22958;51.232;6.826;2022-07-23T00:22:36;17.00;99.90
37050;DHT22;22958;51.232;6.826;2022-07-23T00:25:01;17.00;99.90
37050;DHT22;22958;51.232;6.826;2022-07-23T00:27:27;16.90;99.90
37050;DHT22;22958;51.232;6.826;2022-07-23T00:29:52;16.90;99.90
37050;DHT22;22958;51.232;6.826;2022-07-23T00:32:18;16.90;99.90
37050;DHT22;22958;51.232;6.826;2022-07-23T00:34:43;16.90;99.90
37050;DHT22;22958;51.232;6.826;2022-07-23T00:37:09;16.90;99.90
37050;DHT22;22958;51.232;6.826;2022-07-23T00:39:34;16.80;99.90
37050;DHT22;22958;51.232;6.826;2022-07-23T00:41:59;16.90;99.90
37050;DHT22;22958;51.232;6.826;2022-07-23T00:44:25;16.90;99.90
37050;DHT22;22958;51.232;6.826;2022-07-23T00:46:55;16.90;99.90
37050;DHT22;22958;51.232;6.826;2022-07-23T00:49:22;16.90;99.90
37050;DHT22;22958;51.232;6.826;2022-07-23T00:51:48;16.80;99.90
37050;DHT22;22958;51.232;6.826;2022-07-23T00:54:14;16.80;99.90
37050;DHT22;22958;51.232;6.826;2022-07-23T00:56:40;16.80;99.90
37050;DHT22;22958;51.232;6.826;2022-07-23T00:59:06;16.80;99.90
37050;DHT22;22958;51.232;6.826;2022-07-23T01:01:32;16.70;99.90
37050;DHT22;22958;51.232;6.826;2022-07-23T01:03:57;16.70;99.90
37050;DHT22;22958;51.232;6.826;2022-07-23T01:06:23;16.70;99.90
37050;DHT22;22958;51.232;6.826;2022-07-23T01:08:48;16.70;99.90
37050;DHT22;22958;51.232;6.826;2022-07-23T01:11:14;16.70;99.90
37050;DHT22;22958;51.232;6.826;2022-07-23T01:13:43;16.60;99.90
37050;DHT22;22958;51.232;6.826;2022-07-23T01:16:08;16.60;99.90
37050;DHT22;22958;51.232;6.826;2022-07-23T01:18:34;16.70;99.90
37050;DHT22;22958;51.232;6.826;2022-07-23T01:20:59;16.70;99.90
37050;DHT22;22958;51.232;6.826;2022-07-23T01:23:25;16.60;99.90
37050;DHT22;22958;51.232;6.826;2022-07-23T01:25:53;16.60;99.90
37050;DHT22;22958;51.232;6.826;2022-07-23T01:28:19;16.60;99.90
37050;DHT22;22958;51.232;6.826;2022-07-23T01:30:46;16.60;99.90
37050;DHT22;22958;51.232;6.826;2022-07-23T01:33:11;16.60;99.90
37050;DHT22;22958;51.232;6.826;2022-07-23T01:35:37;16.60;99.90
37050;DHT22;22958;51.232;6.826;2022-07-23T01:38:02;16.60;99.90
37050;DHT22;22958;51.232;6.826;2022-07-23T01:40:28;16.60;99.90
37050;DHT22;22958;51.232;6.826;2022-07-23T01:42:53;16.60;99.90
37050;DHT22;22958;51.232;6.826;2022-07-23T01:45:19;16.60;99.90
37050;DHT22;22958;51.232;6.826;2022-07-23T01:47:44;16.60;99.90
37050;DHT22;22958;51.232;6.826;2022-07-23T01:50:10;16.60;99.90
37050;DHT22;22958;51.232;6.826;2022-07-23T01:52:35;16.60;99.90
37050;DHT22;22958;51.232;6.826;2022-07-23T01:55:00;16.60;99.90
37050;DHT22;22958;51.232;6.826;2022-07-23T01:57:26;16.70;99.90
37050;DHT22;22958;51.232;6.826;2022-07-23T01:59:51;16.60;99.90
37050;DHT22;22958;51.232;6.826;2022-07-23T02:02:17;16.60;99.90
37050;DHT22;22958;51.232;6.826;2022-07-23T02:04:42;16.60;99.90
37050;DHT22;22958;51.232;6.826;2022-07-23T02:07:08;16.50;99.90
37050;DHT22;22958;51.232;6.826;2022-07-23T02:09:33;16.50;99.90
37050;DHT22;22958;51.232;6.826;2022-07-23T02:11:59;16.40;99.90
37050;DHT22;22958;51.232;6.826;2022-07-23T02:14:25;16.40;99.90
37050;DHT22;22958;51.232;6.826;2022-07-23T02:16:50;16.40;99.90
37050;DHT22;22958;51.232;6.826;2022-07-23T02:19:16;16.40;99.90
37050;DHT22;22958;51.232;6.826;2022-07-23T02:21:41;16.40;99.90
37050;DHT22;22958;51.232;6.826;2022-07-23T02:24:07;16.40;99.90
37050;DHT22;22958;51.232;6.826;2022-07-23T02:26:32;16.40;99.90
37050;DHT22;22958;51.232;6.826;2022-07-23T02:29:00;16.40;99.90
37050;DHT22;22958;51.232;6.826;2022-07-23T02:31:26;16.40;99.90
37050;DHT22;22958;51.232;6.826;2022-07-23T02:33:51;16.40;99.90
37050;DHT22;22958;51.232;6.826;2022-07-23T02:36:16;16.40;99.90
37050;DHT22;22958;51.232;6.826;2022-07-23T02:38:42;16.40;99.90
37050;DHT22;22958;51.232;6.826;2022-07-23T02:41:07;16.30;99.90
37050;DHT22;22958;51.232;6.826;2022-07-23T02:43:33;16.30;99.90
37050;DHT22;22958;51.232;6.826;2022-07-23T02:45:58;16.30;99.90
37050;DHT22;22958;51.232;6.826;2022-07-23T02:48:24;16.30;99.90
37050;DHT22;22958;51.232;6.826;2022-07-23T02:50:49;16.30;99.90
37050;DHT22;22958;51.232;6.826;2022-07-23T02:53:15;16.20;99.90
37050;DHT22;22958;51.232;6.826;2022-07-23T02:55:40;16.20;99.90
37050;DHT22;22958;51.232;6.826;2022-07-23T02:58:05;16.20;99.90
37050;DHT22;22958;51.232;6.826;2022-07-23T03:00:31;16.20;99.90
37050;DHT22;22958;51.232;6.826;2022-07-23T03:02:56;16.10;99.90
37050;DHT22;22958;51.232;6.826;2022-07-23T03:05:22;16.10;99.90
37050;DHT22;22958;51.232;6.826;2022-07-23T03:07:47;16.10;99.90
37050;DHT22;22958;51.232;6.826;2022-07-23T03:10:13;16.10;99.90
37050;DHT22;22958;51.232;6.826;2022-07-23T03:12:38;16.00;99.90
37050;DHT22;22958;51.232;6.826;2022-07-23T03:15:04;16.00;99.90
37050;DHT22;22958;51.232;6.826;2022-07-23T03:17:29;15.90;99.90
37050;DHT22;22958;51.232;6.826;2022-07-23T03:19:55;15.90;99.90
37050;DHT22;22958;51.232;6.826;2022-07-23T03:22:20;15.90;99.90
37050;DHT22;22958;51.232;6.826;2022-07-23T03:24:45;15.80;99.90
37050;DHT22;22958;51.232;6.826;2022-07-23T03:27:23;15.80;99.90
37050;DHT22;22958;51.232;6.826;2022-07-23T03:29:49;15.90;99.90
37050;DHT22;22958;51.232;6.826;2022-07-23T03:32:15;15.80;99.90
37050;DHT22;22958;51.232;6.826;2022-07-23T03:34:40;15.80;99.90
37050;DHT22;22958;51.232;6.826;2022-07-23T03:37:06;15.80;99.90
37050;DHT22;22958;51.232;6.826;2022-07-23T03:39:31;15.80;99.90
37050;DHT22;22958;51.232;6.826;2022-07-23T03:41:57;15.80;99.90
37050;DHT22;22958;51.232;6.826;2022-07-23T03:44:22;15.80;99.90
37050;DHT22;22958;51.232;6.826;2022-07-23T03:46:48;15.70;99.90
37050;DHT22;22958;51.232;6.826;2022-07-23T03:49:14;15.70;99.90
37050;DHT22;22958;51.232;6.826;2022-07-23T03:51:39;15.70;99.90
37050;DHT22;22958;51.232;6.826;2022-07-23T03:54:05;15.60;99.90
37050;DHT22;22958;51.232;6.826;2022-07-23T03:56:30;15.70;99.90
37050;DHT22;22958;51.232;6.826;2022-07-23T03:58:56;15.60;99.90
37050;DHT22;22958;51.232;6.826;2022-07-23T04:01:21;15.70;99.90
37050;DHT22;22958;51.232;6.826;2022-07-23T04:03:46;15.70;99.90
37050;DHT22;22958;51.232;6.826;2022-07-23T04:06:12;15.70;99.90
37050;DHT22;22958;51.232;6.826;2022-07-23T04:08:37;15.60;99.90
37050;DHT22;22958;51.232;6.826;2022-07-23T04:11:03;15.60;99.90
37050;DHT22;22958;51.232;6.826;2022-07-23T04:13:28;15.60;99.90
37050;DHT22;22958;51.232;6.826;2022-07-23T04:15:54;15.60;99.90
37050;DHT22;22958;51.232;6.826;2022-07-23T04:18:19;15.60;99.90
37050;DHT22;22958;51.232;6.826;2022-07-23T04:20:47;15.60;99.90
37050;DHT22;22958;51.232;6.826;2022-07-23T04:23:12;15.70;99.90
37050;DHT22;22958;51.232;6.826;2022-07-23T04:25:38;15.70;99.90
37050;DHT22;22958;51.232;6.826;2022-07-23T04:28:03;15.70;99.90
37050;DHT22;22958;51.232;6.826;2022-07-23T04:30:29;15.70;99.90
37050;DHT22;22958;51.232;6.826;2022-07-23T04:32:54;15.70;99.90
37050;DHT22;22958;51.232;6.826;2022-07-23T04:35:20;15.70;99.90
37050;DHT22;22958;51.232;6.826;2022-07-23T04:37:45;15.80;99.90
37050;DHT22;22958;51.232;6.826;2022-07-23T04:40:11;15.80;99.90
37050;DHT22;22958;51.232;6.826;2022-07-23T04:42:37;15.80;99.90
37050;DHT22;22958;51.232;6.826;2022-07-23T04:45:02;15.70;99.90
37050;DHT22;22958;51.232;6.826;2022-07-23T04:47:29;15.80;99.90
37050;DHT22;22958;51.232;6.826;2022-07-23T04:49:54;15.80;99.90
37050;DHT22;22958;51.232;6.826;2022-07-23T04:52:20;15.80;99.90
37050;DHT22;22958;51.232;6.826;2022-07-23T04:54:45;15.80;99.90
37050;DHT22;22958;51.232;6.826;2022-07-23T04:57:10;15.80;99.90
37050;DHT22;22958;51.232;6.826;2022-07-23T04:59:36;15.90;99.90
37050;DHT22;22958;51.232;6.826;2022-07-23T05:02:01;15.90;99.90
37050;DHT22;22958;51.232;6.826;2022-07-23T05:04:27;16.00;99.90
37050;DHT22;22958;51.232;6.826;2022-07-23T05:06:52;16.10;99.90
37050;DHT22;22958;51.232;6.826;2022-07-23T05:09:18;16.10;99.90
37050;DHT22;22958;51.232;6.826;2022-07-23T05:11:43;16.10;99.90
37050;DHT22;22958;51.232;6.826;2022-07-23T05:14:08;16.10;99.90
37050;DHT22;22958;51.232;6.826;2022-07-23T05:16:34;16.10;99.90
37050;DHT22;22958;51.232;6.826;2022-07-23T05:18:59;16.20;99.90
37050;DHT22;22958;51.232;6.826;2022-07-23T05:21:25;16.20;99.90
37050;DHT22;22958;51.232;6.826;2022-07-23T05:23:50;16.20;99.90
37050;DHT22;22958;51.232;6.826;2022-07-23T05:26:16;16.20;99.90
37050;DHT22;22958;51.232;6.826;2022-07-23T05:28:41;16.20;99.90
37050;DHT22;22958;51.232;6.826;2022-07-23T05:31:06;16.30;99.90
37050;DHT22;22958;51.232;6.826;2022-07-23T05:33:32;16.30;99.90
37050;DHT22;22958;51.232;6.826;2022-07-23T05:36:01;16.40;99.90
37050;DHT22;22958;51.232;6.826;2022-07-23T05:38:27;16.40;99.90
37050;DHT22;22958;51.232;6.826;2022-07-23T05:40:52;16.40;99.90
37050;DHT22;22958;51.232;6.826;2022-07-23T05:43:17;16.50;99.90
37050;DHT22;22958;51.232;6.826;2022-07-23T05:45:43;16.60;99.90
37050;DHT22;22958;51.232;6.826;2022-07-23T05:48:08;16.70;99.90
37050;DHT22;22958;51.232;6.826;2022-07-23T05:50:34;16.70;99.90
37050;DHT22;22958;51.232;6.826;2022-07-23T05:52:59;16.70;99.90
37050;DHT22;22958;51.232;6.826;2022-07-23T05:55:25;16.80;99.90
37050;DHT22;22958;51.232;6.826;2022-07-23T05:57:50;16.90;99.90
37050;DHT22;22958;51.232;6.826;2022-07-23T06:00:16;17.00;99.90
37050;DHT22;22958;51.232;6.826;2022-07-23T06:02:41;17.00;99.90
37050;DHT22;22958;51.232;6.826;2022-07-23T06:05:07;17.10;99.90
37050;DHT22;22958;51.232;6.826;2022-07-23T06:07:33;17.20;99.90
37050;DHT22;22958;51.232;6.826;2022-07-23T06:09:58;17.40;99.90
37050;DHT22;22958;51.232;6.826;2022-07-23T06:12:24;17.50;99.90
37050;DHT22;22958;51.232;6.826;2022-07-23T06:14:51;17.60;99.90
37050;DHT22;22958;51.232;6.826;2022-07-23T06:17:17;17.50;99.90
37050;DHT22;22958;51.232;6.826;2022-07-23T06:19:43;17.60;99.90
37050;DHT22;22958;51.232;6.826;2022-07-23T06:22:08;17.70;99.90
37050;DHT22;22958;51.232;6.826;2022-07-23T06:24:34;17.70;99.90
37050;DHT22;22958;51.232;6.826;2022-07-23T06:26:59;17.60;99.90
37050;DHT22;22958;51.232;6.826;2022-07-23T06:29:25;17.60;99.90
37050;DHT22;22958;51.232;6.826;2022-07-23T06:31:50;17.70;99.90
37050;DHT22;22958;51.232;6.826;2022-07-23T06:34:16;17.80;99.90
37050;DHT22;22958;51.232;6.826;2022-07-23T06:36:41;17.90;99.90
37050;DHT22;22958;51.232;6.826;2022-07-23T06:39:06;18.00;99.90
37050;DHT22;22958;51.232;6.826;2022-07-23T06:41:32;18.10;99.90
37050;DHT22;22958;51.232;6.826;2022-07-23T06:43:57;18.20;99.90
37050;DHT22;22958;51.232;6.826;2022-07-23T06:46:23;18.30;99.90
37050;DHT22;22958;51.232;6.826;2022-07-23T06:48:48;18.50;99.90
37050;DHT22;22958;51.232;6.826;2022-07-23T06:51:14;18.60;99.90
37050;DHT22;22958;51.232;6.826;2022-07-23T06:53:39;18.60;99.90
37050;DHT22;22958;51.232;6.826;2022-07-23T06:56:06;18.30;99.90
37050;DHT22;22958;51.232;6.826;2022-07-23T06:58:31;18.50;99.90
37050;DHT22;22958;51.232;6.826;2022-07-23T07:00:57;18.60;99.90
37050;DHT22;22958;51.232;6.826;2022-07-23T07:03:22;18.60;99.90
37050;DHT22;22958;51.232;6.826;2022-07-23T07:05:48;18.70;99.90
37050;DHT22;22958;51.232;6.826;2022-07-23T07:08:15;18.80;99.90
37050;DHT22;22958;51.232;6.826;2022-07-23T07:10:40;18.90;99.90
37050;DHT22;22958;51.232;6.826;2022-07-23T07:13:06;18.80;99.90
37050;DHT22;22958;51.232;6.826;2022-07-23T07:15:31;18.80;99.90
37050;DHT22;22958;51.232;6.826;2022-07-23T07:17:57;19.00;99.90
37050;DHT22;22958;51.232;6.826;2022-07-23T07:20:22;19.10;99.90
37050;DHT22;22958;51.232;6.826;2022-07-23T07:22:49;19.10;99.90
37050;DHT22;22958;51.232;6.826;2022-07-23T07:25:14;19.20;99.90
37050;DHT22;22958;51.232;6.826;2022-07-23T07:27:40;19.40;99.90
37050;DHT22;22958;51.232;6.826;2022-07-23T07:30:06;19.60;99.90
37050;DHT22;22958;51.232;6.826;2022-07-23T07:32:31;19.60;99.90
37050;DHT22;22958;51.232;6.826;2022-07-23T07:35:02;19.70;99.90
37050;DHT22;22958;51.232;6.826;2022-07-23T07:37:28;19.50;99.90
37050;DHT22;22958;51.232;6.826;2022-07-23T07:39:54;19.50;99.90
37050;DHT22;22958;51.232;6.826;2022-07-23T07:42:19;19.30;99.90
37050;DHT22;22958;51.232;6.826;2022-07-23T07:44:45;19.10;99.90
37050;DHT22;22958;51.232;6.826;2022-07-23T07:47:10;19.10;99.90
37050;DHT22;22958;51.232;6.826;2022-07-23T07:49:36;19.20;99.90
37050;DHT22;22958;51.232;6.826;2022-07-23T07:52:02;19.40;99.90
37050;DHT22;22958;51.232;6.826;2022-07-23T07:54:27;19.70;99.90
37050;DHT22;22958;51.232;6.826;2022-07-23T07:56:53;19.70;99.90
37050;DHT22;22958;51.232;6.826;2022-07-23T07:59:18;19.50;99.90
37050;DHT22;22958;51.232;6.826;2022-07-23T08:01:44;19.40;99.90
37050;DHT22;22958;51.232;6.826;2022-07-23T08:04:09;19.30;99.90
37050;DHT22;22958;51.232;6.826;2022-07-23T08:06:35;19.50;99.90
37050;DHT22;22958;51.232;6.826;2022-07-23T08:09:00;19.50;99.90
37050;DHT22;22958;51.232;6.826;2022-07-23T08:11:25;19.50;99.90
37050;DHT22;22958;51.232;6.826;2022-07-23T08:13:51;19.50;99.90
37050;DHT22;22958;51.232;6.826;2022-07-23T08:16:16;19.90;99.90
37050;DHT22;22958;51.232;6.826;2022-07-23T08:18:42;20.20;99.90
37050;DHT22;22958;51.232;6.826;2022-07-23T08:21:07;20.50;99.90
37050;DHT22;22958;51.232;6.826;2022-07-23T08:23:33;20.20;99.90
37050;DHT22;22958;51.232;6.826;2022-07-23T08:25:59;20.40;99.90
37050;DHT22;22958;51.232;6.826;2022-07-23T08:28:26;20.80;99.90
37050;DHT22;22958;51.232;6.826;2022-07-23T08:30:52;20.50;99.90
37050;DHT22;22958;51.232;6.826;2022-07-23T08:33:17;20.50;99.90
37050;DHT22;22958;51.232;6.826;2022-07-23T08:35:44;20.30;99.90
37050;DHT22;22958;51.232;6.826;2022-07-23T08:38:12;20.50;99.90
37050;DHT22;22958;51.232;6.826;2022-07-23T08:40:38;20.50;99.90
37050;DHT22;22958;51.232;6.826;2022-07-23T08:43:05;20.80;99.90
37050;DHT22;22958;51.232;6.826;2022-07-23T08:45:30;20.60;99.90
37050;DHT22;22958;51.232;6.826;2022-07-23T08:47:58;20.50;99.90
37050;DHT22;22958;51.232;6.826;2022-07-23T08:50:26;20.40;99.90
37050;DHT22;22958;51.232;6.826;2022-07-23T08:52:53;20.60;99.90
37050;DHT22;22958;51.232;6.826;2022-07-23T08:55:20;21.00;99.90
37050;DHT22;22958;51.232;6.826;2022-07-23T08:57:47;21.30;99.90
37050;DHT22;22958;51.232;6.826;2022-07-23T09:00:13;21.10;99.90
37050;DHT22;22958;51.232;6.826;2022-07-23T09:02:39;21.20;99.90
37050;DHT22;22958;51.232;6.826;2022-07-23T09:05:05;21.70;99.90
37050;DHT22;22958;51.232;6.826;2022-07-23T09:07:31;22.00;99.90
37050;DHT22;22958;51.232;6.826;2022-07-23T09:10:04;22.20;99.90
37050;DHT22;22958;51.232;6.826;2022-07-23T09:12:30;22.20;99.90
37050;DHT22;22958;51.232;6.826;2022-07-23T09:14:55;22.40;99.90
37050;DHT22;22958;51.232;6.826;2022-07-23T09:17:28;22.50;99.90
37050;DHT22;22958;51.232;6.826;2022-07-23T09:20:34;22.60;99.90
37050;DHT22;22958;51.232;6.826;2022-07-23T09:22:53;22.80;99.90
37050;DHT22;22958;51.232;6.826;2022-07-23T09:25:19;23.00;99.90
37050;DHT22;22958;51.232;6.826;2022-07-23T09:27:52;22.80;99.90
37050;DHT22;22958;51.232;6.826;2022-07-23T09:30:18;22.70;99.90
37050;DHT22;22958;51.232;6.826;2022-07-23T09:32:44;22.90;99.90
37050;DHT22;22958;51.232;6.826;2022-07-23T09:38:25;22.30;99.90
37050;DHT22;22958;51.232;6.826;2022-07-23T09:43:32;22.40;99.90
37050;DHT22;22958;51.232;6.826;2022-07-23T09:46:16;22.70;99.90
37050;DHT22;22958;51.232;6.826;2022-07-23T09:48:42;23.00;99.90
37050;DHT22;22958;51.232;6.826;2022-07-23T09:51:07;23.00;99.90
37050;DHT22;22958;51.232;6.826;2022-07-23T09:53:33;23.10;99.90
37050;DHT22;22958;51.232;6.826;2022-07-23T09:55:58;23.50;99.90
37050;DHT22;22958;51.232;6.826;2022-07-23T09:58:25;23.60;99.90
37050;DHT22;22958;51.232;6.826;2022-07-23T10:00:52;23.40;99.90
37050;DHT22;22958;51.232;6.826;2022-07-23T10:03:18;23.40;99.90
37050;DHT22;22958;51.232;6.826;2022-07-23T10:05:44;23.10;99.90
37050;DHT22;22958;51.232;6.826;2022-07-23T10:08:13;23.00;99.90
37050;DHT22;22958;51.232;6.826;2022-07-23T10:10:40;22.80;99.90
37050;DHT22;22958;51.232;6.826;2022-07-23T10:13:06;22.80;99.90
37050;DHT22;22958;51.232;6.826;2022-07-23T10:15:43;22.60;99.90
37050;DHT22;22958;51.232;6.826;2022-07-23T10:18:10;22.40;99.90
37050;DHT22;22958;51.232;6.826;2022-07-23T10:20:35;22.40;99.90
37050;DHT22;22958;51.232;6.826;2022-07-23T10:23:23;22.90;99.90
37050;DHT22;22958;51.232;6.826;2022-07-23T10:26:51;23.10;99.90
37050;DHT22;22958;51.232;6.826;2022-07-23T10:31:35;22.90;99.90
37050;DHT22;22958;51.232;6.826;2022-07-23T10:37:16;22.60;99.90
37050;DHT22;22958;51.232;6.826;2022-07-23T10:39:46;22.60;99.90
37050;DHT22;22958;51.232;6.826;2022-07-23T10:42:12;22.80;99.90
37050;DHT22;22958;51.232;6.826;2022-07-23T10:44:42;23.30;99.90
37050;DHT22;22958;51.232;6.826;2022-07-23T10:47:08;23.20;99.90
37050;DHT22;22958;51.232;6.826;2022-07-23T10:49:52;23.30;99.90
37050;DHT22;22958;51.232;6.826;2022-07-23T10:52:22;23.50;99.90
37050;DHT22;22958;51.232;6.826;2022-07-23T10:54:52;23.80;99.90
37050;DHT22;22958;51.232;6.826;2022-07-23T10:57:19;24.20;99.90
37050;DHT22;22958;51.232;6.826;2022-07-23T11:02:26;23.60;99.90
37050;DHT22;22958;51.232;6.826;2022-07-23T11:04:53;23.30;99.90
37050;DHT22;22958;51.232;6.826;2022-07-23T11:07:18;23.70;99.90
37050;DHT22;22958;51.232;6.826;2022-07-23T11:09:44;24.10;99.90
37050;DHT22;22958;51.232;6.826;2022-07-23T11:17:57;23.90;99.90
37050;DHT22;22958;51.232;6.826;2022-07-23T11:20:16;25.40;98.70
37050;DHT22;22958;51.232;6.826;2022-07-23T11:25:07;28.10;83.20
37050;DHT22;22958;51.232;6.826;2022-07-23T11:27:37;29.30;76.40
37050;DHT22;22958;51.232;6.826;2022-07-23T11:30:02;29.50;73.30
37050;DHT22;22958;51.232;6.826;2022-07-23T11:32:29;29.60;72.00
37050;DHT22;22958;51.232;6.826;2022-07-23T11:34:54;31.10;67.80
37050;DHT22;22958;51.232;6.826;2022-07-23T11:39:59;30.60;60.50
37050;DHT22;22958;51.232;6.826;2022-07-23T11:42:24;30.60;63.80
37050;DHT22;22958;51.232;6.826;2022-07-23T11:44:50;31.20;59.20
37050;DHT22;22958;51.232;6.826;2022-07-23T11:47:20;31.30;60.20
37050;DHT22;22958;51.232;6.826;2022-07-23T11:49:51;29.50;62.10
37050;DHT22;22958;51.232;6.826;2022-07-23T11:52:17;29.60;64.60
37050;DHT22;22958;51.232;6.826;2022-07-23T11:55:02;31.40;60.70
37050;DHT22;22958;51.232;6.826;2022-07-23T11:57:29;31.10;60.00
37050;DHT22;22958;51.232;6.826;2022-07-23T11:59:56;29.90;60.00
37050;DHT22;22958;51.232;6.826;2022-07-23T12:02:22;28.70;61.60
37050;DHT22;22958;51.232;6.826;2022-07-23T12:04:48;30.20;60.10
37050;DHT22;22958;51.232;6.826;2022-07-23T12:07:30;28.20;63.70
37050;DHT22;22958;51.232;6.826;2022-07-23T12:10:13;28.50;64.70
37050;DHT22;22958;51.232;6.826;2022-07-23T12:12:43;28.90;63.20
37050;DHT22;22958;51.232;6.826;2022-07-23T12:15:10;29.30;60.60
37050;DHT22;22958;51.232;6.826;2022-07-23T12:17:36;28.20;62.80
37050;DHT22;22958;51.232;6.826;2022-07-23T12:20:03;28.70;64.80
37050;DHT22;22958;51.232;6.826;2022-07-23T12:22:39;30.60;60.00
37050;DHT22;22958;51.232;6.826;2022-07-23T12:25:06;30.80;60.00
37050;DHT22;22958;51.232;6.826;2022-07-23T12:27:32;31.10;59.50
37050;DHT22;22958;51.232;6.826;2022-07-23T12:29:57;31.20;58.90
37050;DHT22;22958;51.232;6.826;2022-07-23T12:32:25;30.60;59.50
37050;DHT22;22958;51.232;6.826;2022-07-23T12:35:02;32.70;57.90
37050;DHT22;22958;51.232;6.826;2022-07-23T12:37:28;33.70;55.90
37050;DHT22;22958;51.232;6.826;2022-07-23T12:39:54;36.00;52.30
37050;DHT22;22958;51.232;6.826;2022-07-23T12:42:19;34.60;48.90
37050;DHT22;22958;51.232;6.826;2022-07-23T12:45:07;33.70;50.10
37050;DHT22;22958;51.232;6.826;2022-07-23T12:50:32;34.40;48.80
37050;DHT22;22958;51.232;6.826;2022-07-23T12:53:02;32.50;49.70
37050;DHT22;22958;51.232;6.826;2022-07-23T12:55:28;34.20;48.10
37050;DHT22;22958;51.232;6.826;2022-07-23T12:57:53;31.80;50.90
37050;DHT22;22958;51.232;6.826;2022-07-23T13:00:27;29.90;53.70
37050;DHT22;22958;51.232;6.826;2022-07-23T13:02:52;29.10;55.20
37050;DHT22;22958;51.232;6.826;2022-07-23T13:05:18;27.70;57.80
37050;DHT22;22958;51.232;6.826;2022-07-23T13:07:43;27.50;57.90
37050;DHT22;22958;51.232;6.826;2022-07-23T13:10:08;29.00;58.50
37050;DHT22;22958;51.232;6.826;2022-07-23T13:12:37;29.60;55.50
37050;DHT22;22958;51.232;6.826;2022-07-23T13:15:02;28.70;57.00
37050;DHT22;22958;51.232;6.826;2022-07-23T13:17:27;29.30;57.10
37050;DHT22;22958;51.232;6.826;2022-07-23T13:19:53;29.50;56.10
37050;DHT22;22958;51.232;6.826;2022-07-23T13:22:18;29.80;55.70
37050;DHT22;22958;51.232;6.826;2022-07-23T13:24:44;30.70;54.80
37050;DHT22;22958;51.232;6.826;2022-07-23T13:27:09;30.90;53.30
37050;DHT22;22958;51.232;6.826;2022-07-23T13:29:35;31.60;53.20
37050;DHT22;22958;51.232;6.826;2022-07-23T13:32:00;31.50;52.50
37050;DHT22;22958;51.232;6.826;2022-07-23T13:34:25;31.10;51.90
37050;DHT22;22958;51.232;6.826;2022-07-23T13:36:51;30.70;53.10
37050;DHT22;22958;51.232;6.826;2022-07-23T13:39:16;32.20;52.70
37050;DHT22;22958;51.232;6.826;2022-07-23T13:41:42;33.60;50.50
37050;DHT22;22958;51.232;6.826;2022-07-23T13:44:07;32.90;50.40
37050;DHT22;22958;51.232;6.826;2022-07-23T13:46:33;30.80;52.20
37050;DHT22;22958;51.232;6.826;2022-07-23T13:48:59;32.00;53.50
37050;DHT22;22958;51.232;6.826;2022-07-23T13:51:24;33.40;49.80
37050;DHT22;22958;51.232;6.826;2022-07-23T13:53:50;31.80;51.80
37050;DHT22;22958;51.232;6.826;2022-07-23T13:56:15;31.30;52.30
37050;DHT22;22958;51.232;6.826;2022-07-23T13:58:40;32.70;50.90
37050;DHT22;22958;51.232;6.826;2022-07-23T14:01:06;32.80;50.20
37050;DHT22;22958;51.232;6.826;2022-07-23T14:03:31;32.60;50.70
37050;DHT22;22958;51.232;6.826;2022-07-23T14:05:57;31.40;52.00
37050;DHT22;22958;51.232;6.826;2022-07-23T14:08:24;31.60;52.10
37050;DHT22;22958;51.232;6.826;2022-07-23T14:10:49;30.90;53.00
37050;DHT22;22958;51.232;6.826;2022-07-23T14:13:15;32.50;51.70
37050;DHT22;22958;51.232;6.826;2022-07-23T14:15:40;31.90;51.80
37050;DHT22;22958;51.232;6.826;2022-07-23T14:18:06;33.70;50.90
37050;DHT22;22958;51.232;6.826;2022-07-23T14:20:32;35.90;48.10
37050;DHT22;22958;51.232;6.826;2022-07-23T14:22:57;36.30;47.00
37050;DHT22;22958;51.232;6.826;2022-07-23T14:25:25;36.10;46.70
37050;DHT22;22958;51.232;6.826;2022-07-23T14:27:51;36.50;46.90
37050;DHT22;22958;51.232;6.826;2022-07-23T14:30:17;34.10;46.30
37050;DHT22;22958;51.232;6.826;2022-07-23T14:32:42;33.20;49.20
37050;DHT22;22958;51.232;6.826;2022-07-23T14:35:08;33.30;49.30
37050;DHT22;22958;51.232;6.826;2022-07-23T14:37:33;34.70;48.80
37050;DHT22;22958;51.232;6.826;2022-07-23T14:39:59;34.80;46.60
37050;DHT22;22958;51.232;6.826;2022-07-23T14:42:25;34.70;47.50
37050;DHT22;22958;51.232;6.826;2022-07-23T14:44:50;32.90;49.50
37050;DHT22;22958;51.232;6.826;2022-07-23T14:47:16;32.20;49.00
37050;DHT22;22958;51.232;6.826;2022-07-23T14:49:41;32.10;49.90
37050;DHT22;22958;51.232;6.826;2022-07-23T14:52:07;31.60;50.60
37050;DHT22;22958;51.232;6.826;2022-07-23T14:54:32;31.40;50.40
37050;DHT22;22958;51.232;6.826;2022-07-23T14:56:58;30.70;52.10
37050;DHT22;22958;51.232;6.826;2022-07-23T14:59:24;31.40;50.70
37050;DHT22;22958;51.232;6.826;2022-07-23T15:01:50;31.20;51.60
37050;DHT22;22958;51.232;6.826;2022-07-23T15:04:16;31.40;51.70
37050;DHT22;22958;51.232;6.826;2022-07-23T15:06:41;31.80;51.70
37050;DHT22;22958;51.232;6.826;2022-07-23T15:09:07;32.20;50.20
37050;DHT22;22958;51.232;6.826;2022-07-23T15:11:33;32.90;48.90
37050;DHT22;22958;51.232;6.826;2022-07-23T15:14:08;32.20;48.70
37050;DHT22;22958;51.232;6.826;2022-07-23T15:16:34;31.40;50.50
37050;DHT22;22958;51.232;6.826;2022-07-23T15:19:00;31.00;51.50
37050;DHT22;22958;51.232;6.826;2022-07-23T15:21:27;31.40;51.70
37050;DHT22;22958;51.232;6.826;2022-07-23T15:23:54;30.90;51.30
37050;DHT22;22958;51.232;6.826;2022-07-23T15:26:20;30.70;52.00
37050;DHT22;22958;51.232;6.826;2022-07-23T15:28:47;30.80;51.70
37050;DHT22;22958;51.232;6.826;2022-07-23T15:31:12;30.50;51.30
37050;DHT22;22958;51.232;6.826;2022-07-23T15:33:37;30.30;52.40
37050;DHT22;22958;51.232;6.826;2022-07-23T15:36:05;30.70;53.10
37050;DHT22;22958;51.232;6.826;2022-07-23T15:38:30;31.90;50.30
37050;DHT22;22958;51.232;6.826;2022-07-23T15:40:56;30.60;50.60
37050;DHT22;22958;51.232;6.826;2022-07-23T15:43:22;30.50;52.30
37050;DHT22;22958;51.232;6.826;2022-07-23T15:45:48;29.90;52.10
37050;DHT22;22958;51.232;6.826;2022-07-23T15:48:14;28.90;53.00
37050;DHT22;22958;51.232;6.826;2022-07-23T15:50:39;29.10;53.30
37050;DHT22;22958;51.232;6.826;2022-07-23T15:53:05;29.30;53.00